sensor_id;sensor_type;location;lat;lon;timestamp;P1;durP1;ratioP1;P2;durP2;ratioP2
15381;SDS011;7789;51.364;12.358;2022-09-29T00:01:49;3.60;;;3.30;;
15381;SDS011;7789;51.364;12.358;2022-09-29T00:06:54;3.40;;;2.97;;
15381;SDS011;7789;51.364;12.358;2022-09-29T00:12:04;3.97;;;3.53;;
15381;SDS011;7789;51.364;12.358;2022-09-29T00:17:35;4.03;;;3.60;;
15381;SDS011;7789;51.364;12.358;2022-09-29T00:23:05;5.40;;;3.60;;
15381;SDS011;7789;51.364;12.358;2022-09-29T00:28:21;3.93;;;3.53;;
15381;SDS011;7789;51.364;12.358;2022-09-29T00:33:45;4.17;;;3.40;;
15381;SDS011;7789;51.364;12.358;2022-09-29T00:39:02;3.50;;;3.20;;
15381;SDS011;7789;51.364;12.358;2022-09-29T00:49:52;5.23;;;4.03;;
15381;SDS011;7789;51.364;12.358;2022-09-29T00:55:06;4.37;;;3.83;;
15381;SDS011;7789;51.364;12.358;2022-09-29T01:00:31;4.90;;;3.90;;
15381;SDS011;7789;51.364;12.358;2022-09-29T01:05:39;5.27;;;3.77;;
15381;SDS011;7789;51.364;12.358;2022-09-29T01:11:24;4.27;;;3.73;;
15381;SDS011;7789;51.364;12.358;2022-09-29T01:16:39;4.70;;;3.60;;
15381;SDS011;7789;51.364;12.358;2022-09-29T01:33:42;6.70;;;4.37;;
15381;SDS011;7789;51.364;12.358;2022-09-29T01:39:29;4.40;;;4.00;;
15381;SDS011;7789;51.364;12.358;2022-09-29T01:44:52;4.03;;;3.43;;
15381;SDS011;7789;51.364;12.358;2022-09-29T01:55:40;4.70;;;3.77;;
15381;SDS011;7789;51.364;12.358;2022-09-29T02:00:54;4.57;;;4.00;;
15381;SDS011;7789;51.364;12.358;2022-09-29T02:06:16;4.97;;;3.80;;
15381;SDS011;7789;51.364;12.358;2022-09-29T02:11:40;5.47;;;4.37;;
15381;SDS011;7789;51.364;12.358;2022-09-29T02:16:56;4.23;;;3.80;;
15381;SDS011;7789;51.364;12.358;2022-09-29T02:22:10;7.00;;;4.27;;
15381;SDS011;7789;51.364;12.358;2022-09-29T02:27:46;4.93;;;4.27;;
15381;SDS011;7789;51.364;12.358;2022-09-29T02:32:56;5.43;;;4.00;;
15381;SDS011;7789;51.364;12.358;2022-09-29T02:38:17;4.80;;;3.93;;
15381;SDS011;7789;51.364;12.358;2022-09-29T02:43:44;4.97;;;3.97;;
15381;SDS011;7789;51.364;12.358;2022-09-29T02:49:20;4.53;;;4.10;;
15381;SDS011;7789;51.364;12.358;2022-09-29T02:54:44;5.73;;;4.33;;
15381;SDS011;7789;51.364;12.358;2022-09-29T02:59:56;5.37;;;4.40;;
15381;SDS011;7789;51.364;12.358;2022-09-29T03:05:20;5.53;;;4.63;;
15381;SDS011;7789;51.364;12.358;2022-09-29T03:10:32;8.43;;;4.53;;
15381;SDS011;7789;51.364;12.358;2022-09-29T03:15:55;6.43;;;4.70;;
15381;SDS011;7789;51.364;12.358;2022-09-29T03:21:31;5.53;;;4.87;;
15381;SDS011;7789;51.364;12.358;2022-09-29T03:26:40;8.57;;;5.30;;
15381;SDS011;7789;51.364;12.358;2022-09-29T03:31:58;7.67;;;5.43;;
15381;SDS011;7789;51.364;12.358;2022-09-29T03:37:21;9.27;;;5.40;;
15381;SDS011;7789;51.364;12.358;2022-09-29T03:42:55;6.57;;;4.90;;
15381;SDS011;7789;51.364;12.358;2022-09-29T03:48:08;6.03;;;5.23;;
15381;SDS011;7789;51.364;12.358;2022-09-29T03:53:13;7.80;;;5.93;;
15381;SDS011;7789;51.364;12.358;2022-09-29T03:58:26;5.97;;;4.93;;
15381;SDS011;7789;51.364;12.358;2022-09-29T04:03:32;7.20;;;5.27;;
15381;SDS011;7789;51.364;12.358;2022-09-29T04:08:40;6.10;;;5.10;;
15381;SDS011;7789;51.364;12.358;2022-09-29T04:13:50;6.37;;;5.13;;
15381;SDS011;7789;51.364;12.358;2022-09-29T04:19:00;6.80;;;4.70;;
15381;SDS011;7789;51.364;12.358;2022-09-29T04:24:08;5.40;;;4.57;;
15381;SDS011;7789;51.364;12.358;2022-09-29T04:29:15;6.57;;;4.63;;
15381;SDS011;7789;51.364;12.358;2022-09-29T04:34:32;12.30;;;5.13;;
15381;SDS011;7789;51.364;12.358;2022-09-29T04:39:44;8.43;;;5.57;;
15381;SDS011;7789;51.364;12.358;2022-09-29T04:45:08;7.63;;;5.63;;
15381;SDS011;7789;51.364;12.358;2022-09-29T04:50:31;9.33;;;5.03;;
15381;SDS011;7789;51.364;12.358;2022-09-29T04:55:58;8.60;;;5.57;;
15381;SDS011;7789;51.364;12.358;2022-09-29T05:01:10;10.73;;;6.17;;
15381;SDS011;7789;51.364;12.358;2022-09-29T05:06:18;8.20;;;5.63;;
15381;SDS011;7789;51.364;12.358;2022-09-29T05:11:41;9.17;;;6.07;;
15381;SDS011;7789;51.364;12.358;2022-09-29T05:16:54;11.17;;;6.33;;
15381;SDS011;7789;51.364;12.358;2022-09-29T05:22:02;9.37;;;7.57;;
15381;SDS011;7789;51.364;12.358;2022-09-29T05:27:11;8.93;;;6.73;;
15381;SDS011;7789;51.364;12.358;2022-09-29T05:32:19;9.23;;;6.17;;
15381;SDS011;7789;51.364;12.358;2022-09-29T05:37:29;9.70;;;6.97;;
15381;SDS011;7789;51.364;12.358;2022-09-29T05:42:43;8.63;;;6.80;;
15381;SDS011;7789;51.364;12.358;2022-09-29T05:47:51;8.13;;;6.20;;
15381;SDS011;7789;51.364;12.358;2022-09-29T05:53:01;9.47;;;6.37;;
15381;SDS011;7789;51.364;12.358;2022-09-29T05:58:12;10.03;;;5.83;;
15381;SDS011;7789;51.364;12.358;2022-09-29T06:03:21;6.30;;;5.47;;
15381;SDS011;7789;51.364;12.358;2022-09-29T06:08:28;8.17;;;5.37;;
15381;SDS011;7789;51.364;12.358;2022-09-29T06:13:50;7.40;;;5.60;;
15381;SDS011;7789;51.364;12.358;2022-09-29T06:19:01;6.13;;;4.90;;
15381;SDS011;7789;51.364;12.358;2022-09-29T06:24:28;7.93;;;5.93;;
15381;SDS011;7789;51.364;12.358;2022-09-29T06:29:36;8.00;;;6.03;;
15381;SDS011;7789;51.364;12.358;2022-09-29T06:40:45;7.13;;;5.10;;
15381;SDS011;7789;51.364;12.358;2022-09-29T06:45:56;7.50;;;4.43;;
15381;SDS011;7789;51.364;12.358;2022-09-29T06:51:12;7.73;;;4.50;;
15381;SDS011;7789;51.364;12.358;2022-09-29T06:56:50;9.27;;;4.53;;
15381;SDS011;7789;51.364;12.358;2022-09-29T07:01:59;5.93;;;4.63;;
15381;SDS011;7789;51.364;12.358;2022-09-29T07:07:09;7.23;;;4.60;;
15381;SDS011;7789;51.364;12.358;2022-09-29T07:12:17;5.00;;;4.10;;
15381;SDS011;7789;51.364;12.358;2022-09-29T07:17:39;5.63;;;4.60;;
15381;SDS011;7789;51.364;12.358;2022-09-29T07:22:46;6.28;;;4.20;;
15381;SDS011;7789;51.364;12.358;2022-09-29T07:27:52;5.97;;;4.53;;
15381;SDS011;7789;51.364;12.358;2022-09-29T07:33:02;9.55;;;4.47;;
15381;SDS011;7789;51.364;12.358;2022-09-29T07:38:18;6.85;;;4.40;;
15381;SDS011;7789;51.364;12.358;2022-09-29T07:43:36;10.18;;;5.10;;
15381;SDS011;7789;51.364;12.358;2022-09-29T07:49:01;5.47;;;4.15;;
15381;SDS011;7789;51.364;12.358;2022-09-29T07:54:22;8.18;;;4.85;;
15381;SDS011;7789;51.364;12.358;2022-09-29T07:59:36;7.20;;;5.00;;
15381;SDS011;7789;51.364;12.358;2022-09-29T08:05:01;6.13;;;4.53;;
15381;SDS011;7789;51.364;12.358;2022-09-29T08:10:17;4.80;;;4.38;;
15381;SDS011;7789;51.364;12.358;2022-09-29T08:15:33;6.97;;;4.75;;
15381;SDS011;7789;51.364;12.358;2022-09-29T08:20:48;5.35;;;4.28;;
15381;SDS011;7789;51.364;12.358;2022-09-29T08:26:07;5.30;;;4.10;;
15381;SDS011;7789;51.364;12.358;2022-09-29T08:31:14;5.00;;;4.18;;
15381;SDS011;7789;51.364;12.358;2022-09-29T08:36:25;6.65;;;3.90;;
15381;SDS011;7789;51.364;12.358;2022-09-29T08:41:51;5.82;;;5.20;;
15381;SDS011;7789;51.364;12.358;2022-09-29T08:47:02;5.55;;;3.97;;
15381;SDS011;7789;51.364;12.358;2022-09-29T08:52:14;6.93;;;4.60;;
15381;SDS011;7789;51.364;12.358;2022-09-29T08:57:32;6.30;;;4.20;;
15381;SDS011;7789;51.364;12.358;2022-09-29T09:08:18;5.18;;;4.47;;
15381;SDS011;7789;51.364;12.358;2022-09-29T09:13:52;5.47;;;4.15;;
15381;SDS011;7789;51.364;12.358;2022-09-29T09:19:27;4.70;;;4.22;;
15381;SDS011;7789;51.364;12.358;2022-09-29T09:24:43;5.65;;;4.10;;
15381;SDS011;7789;51.364;12.358;2022-09-29T09:30:03;4.70;;;4.25;;
15381;SDS011;7789;51.364;12.358;2022-09-29T09:35:26;6.65;;;4.35;;
15381;SDS011;7789;51.364;12.358;2022-09-29T09:41:28;4.97;;;4.43;;
15381;SDS011;7789;51.364;12.358;2022-09-29T09:46:43;4.20;;;3.55;;
15381;SDS011;7789;51.364;12.358;2022-09-29T09:51:58;4.68;;;4.15;;
15381;SDS011;7789;51.364;12.358;2022-09-29T10:03:05;3.55;;;2.65;;
15381;SDS011;7789;51.364;12.358;2022-09-29T10:08:17;4.15;;;2.22;;
15381;SDS011;7789;51.364;12.358;2022-09-29T10:13:43;4.50;;;2.58;;
15381;SDS011;7789;51.364;12.358;2022-09-29T10:19:04;2.97;;;2.58;;
15381;SDS011;7789;51.364;12.358;2022-09-29T10:24:33;3.28;;;2.63;;
15381;SDS011;7789;51.364;12.358;2022-09-29T10:30:17;3.03;;;2.40;;
15381;SDS011;7789;51.364;12.358;2022-09-29T10:35:39;2.72;;;2.20;;
15381;SDS011;7789;51.364;12.358;2022-09-29T10:40:54;3.90;;;2.35;;
15381;SDS011;7789;51.364;12.358;2022-09-29T10:46:04;3.67;;;3.08;;
15381;SDS011;7789;51.364;12.358;2022-09-29T10:51:13;3.53;;;2.92;;
15381;SDS011;7789;51.364;12.358;2022-09-29T10:56:31;4.63;;;3.40;;
15381;SDS011;7789;51.364;12.358;2022-09-29T11:01:42;4.13;;;3.00;;
15381;SDS011;7789;51.364;12.358;2022-09-29T11:06:56;3.67;;;3.13;;
15381;SDS011;7789;51.364;12.358;2022-09-29T11:12:25;4.07;;;3.67;;
15381;SDS011;7789;51.364;12.358;2022-09-29T11:17:51;3.40;;;3.10;;
15381;SDS011;7789;51.364;12.358;2022-09-29T11:28:38;4.53;;;3.10;;
15381;SDS011;7789;51.364;12.358;2022-09-29T11:34:10;2.70;;;2.50;;
15381;SDS011;7789;51.364;12.358;2022-09-29T11:39:35;4.72;;;3.08;;
15381;SDS011;7789;51.364;12.358;2022-09-29T11:44:54;3.05;;;2.80;;
15381;SDS011;7789;51.364;12.358;2022-09-29T11:50:17;3.38;;;3.00;;
15381;SDS011;7789;51.364;12.358;2022-09-29T12:01:45;4.45;;;2.70;;
15381;SDS011;7789;51.364;12.358;2022-09-29T12:07:20;3.40;;;2.63;;
15381;SDS011;7789;51.364;12.358;2022-09-29T12:12:53;3.20;;;2.47;;
15381;SDS011;7789;51.364;12.358;2022-09-29T12:18:12;3.15;;;2.20;;
15381;SDS011;7789;51.364;12.358;2022-09-29T12:23:22;4.25;;;1.73;;
15381;SDS011;7789;51.364;12.358;2022-09-29T12:28:34;3.83;;;1.85;;
15381;SDS011;7789;51.364;12.358;2022-09-29T12:33:57;4.18;;;1.80;;
15381;SDS011;7789;51.364;12.358;2022-09-29T12:44:54;2.30;;;1.40;;
15381;SDS011;7789;51.364;12.358;2022-09-29T12:50:24;2.00;;;1.65;;
15381;SDS011;7789;51.364;12.358;2022-09-29T12:55:35;2.25;;;1.40;;
15381;SDS011;7789;51.364;12.358;2022-09-29T13:00:53;2.17;;;1.70;;
15381;SDS011;7789;51.364;12.358;2022-09-29T13:12:08;1.75;;;1.50;;
15381;SDS011;7789;51.364;12.358;2022-09-29T13:17:38;1.70;;;1.60;;
15381;SDS011;7789;51.364;12.358;2022-09-29T13:22:58;1.77;;;1.60;;
15381;SDS011;7789;51.364;12.358;2022-09-29T13:28:32;3.83;;;1.77;;
15381;SDS011;7789;51.364;12.358;2022-09-29T13:33:56;2.85;;;1.50;;
15381;SDS011;7789;51.364;12.358;2022-09-29T13:39:18;2.15;;;1.73;;
15381;SDS011;7789;51.364;12.358;2022-09-29T13:56:10;1.83;;;1.63;;
15381;SDS011;7789;51.364;12.358;2022-09-29T14:01:29;1.80;;;1.23;;
15381;SDS011;7789;51.364;12.358;2022-09-29T14:06:53;1.55;;;1.42;;
15381;SDS011;7789;51.364;12.358;2022-09-29T14:12:16;1.48;;;1.38;;
15381;SDS011;7789;51.364;12.358;2022-09-29T14:17:26;2.08;;;1.40;;
15381;SDS011;7789;51.364;12.358;2022-09-29T14:23:00;2.65;;;1.58;;
15381;SDS011;7789;51.364;12.358;2022-09-29T14:28:15;1.35;;;1.25;;
15381;SDS011;7789;51.364;12.358;2022-09-29T14:33:28;3.92;;;1.80;;
15381;SDS011;7789;51.364;12.358;2022-09-29T14:38:55;3.25;;;2.03;;
15381;SDS011;7789;51.364;12.358;2022-09-29T14:44:26;3.65;;;2.30;;
15381;SDS011;7789;51.364;12.358;2022-09-29T14:50:07;3.03;;;2.17;;
15381;SDS011;7789;51.364;12.358;2022-09-29T14:55:49;3.67;;;2.20;;
15381;SDS011;7789;51.364;12.358;2022-09-29T15:01:08;2.33;;;2.13;;
15381;SDS011;7789;51.364;12.358;2022-09-29T15:06:32;1.88;;;1.75;;
15381;SDS011;7789;51.364;12.358;2022-09-29T15:11:47;1.50;;;1.20;;
15381;SDS011;7789;51.364;12.358;2022-09-29T15:17:00;2.08;;;1.10;;
15381;SDS011;7789;51.364;12.358;2022-09-29T15:22:18;2.90;;;1.20;;
15381;SDS011;7789;51.364;12.358;2022-09-29T15:27:50;2.95;;;1.40;;
15381;SDS011;7789;51.364;12.358;2022-09-29T15:33:17;3.50;;;1.63;;
15381;SDS011;7789;51.364;12.358;2022-09-29T15:38:34;3.40;;;1.50;;
15381;SDS011;7789;51.364;12.358;2022-09-29T15:43:54;1.92;;;1.40;;
15381;SDS011;7789;51.364;12.358;2022-09-29T15:49:15;4.38;;;1.58;;
15381;SDS011;7789;51.364;12.358;2022-09-29T15:54:27;2.90;;;1.65;;
15381;SDS011;7789;51.364;12.358;2022-09-29T15:59:46;2.88;;;1.60;;
15381;SDS011;7789;51.364;12.358;2022-09-29T16:05:13;3.03;;;1.70;;
15381;SDS011;7789;51.364;12.358;2022-09-29T16:10:27;4.18;;;1.60;;
15381;SDS011;7789;51.364;12.358;2022-09-29T16:15:43;5.03;;;1.85;;
15381;SDS011;7789;51.364;12.358;2022-09-29T16:20:50;2.28;;;1.40;;
15381;SDS011;7789;51.364;12.358;2022-09-29T16:26:14;4.03;;;1.58;;
15381;SDS011;7789;51.364;12.358;2022-09-29T16:31:41;3.17;;;1.13;;
15381;SDS011;7789;51.364;12.358;2022-09-29T16:37:03;2.08;;;1.30;;
15381;SDS011;7789;51.364;12.358;2022-09-29T16:42:16;1.77;;;1.10;;
15381;SDS011;7789;51.364;12.358;2022-09-29T16:47:31;4.05;;;1.33;;
15381;SDS011;7789;51.364;12.358;2022-09-29T16:52:55;3.28;;;1.33;;
15381;SDS011;7789;51.364;12.358;2022-09-29T16:58:03;1.85;;;1.10;;
15381;SDS011;7789;51.364;12.358;2022-09-29T17:03:27;5.45;;;1.40;;
15381;SDS011;7789;51.364;12.358;2022-09-29T17:08:49;1.98;;;1.02;;
15381;SDS011;7789;51.364;12.358;2022-09-29T17:13:56;1.95;;;1.17;;
15381;SDS011;7789;51.364;12.358;2022-09-29T17:19:15;2.75;;;1.58;;
15381;SDS011;7789;51.364;12.358;2022-09-29T17:24:36;2.20;;;1.30;;
15381;SDS011;7789;51.364;12.358;2022-09-29T17:29:50;2.60;;;1.45;;
15381;SDS011;7789;51.364;12.358;2022-09-29T17:35:04;2.20;;;1.50;;
15381;SDS011;7789;51.364;12.358;2022-09-29T17:40:19;3.85;;;1.83;;
15381;SDS011;7789;51.364;12.358;2022-09-29T17:45:29;5.93;;;2.00;;
15381;SDS011;7789;51.364;12.358;2022-09-29T17:51:18;4.53;;;2.60;;
15381;SDS011;7789;51.364;12.358;2022-09-29T17:56:48;4.07;;;2.13;;
15381;SDS011;7789;51.364;12.358;2022-09-29T18:02:17;4.07;;;2.15;;
15381;SDS011;7789;51.364;12.358;2022-09-29T18:07:31;2.75;;;2.40;;
15381;SDS011;7789;51.364;12.358;2022-09-29T18:12:35;5.07;;;2.58;;
15381;SDS011;7789;51.364;12.358;2022-09-29T18:17:57;5.35;;;2.60;;
15381;SDS011;7789;51.364;12.358;2022-09-29T18:23:12;4.43;;;2.72;;
15381;SDS011;7789;51.364;12.358;2022-09-29T18:28:19;4.60;;;3.30;;
15381;SDS011;7789;51.364;12.358;2022-09-29T18:33:29;4.45;;;3.38;;
15381;SDS011;7789;51.364;12.358;2022-09-29T18:38:44;3.60;;;3.08;;
15381;SDS011;7789;51.364;12.358;2022-09-29T18:43:56;4.57;;;3.40;;
15381;SDS011;7789;51.364;12.358;2022-09-29T18:49:01;4.82;;;3.35;;
15381;SDS011;7789;51.364;12.358;2022-09-29T18:54:08;4.75;;;3.38;;
15381;SDS011;7789;51.364;12.358;2022-09-29T18:59:20;4.30;;;3.43;;
15381;SDS011;7789;51.364;12.358;2022-09-29T19:04:31;4.53;;;3.10;;
15381;SDS011;7789;51.364;12.358;2022-09-29T19:09:57;8.75;;;4.00;;
15381;SDS011;7789;51.364;12.358;2022-09-29T19:15:07;4.87;;;3.70;;
15381;SDS011;7789;51.364;12.358;2022-09-29T19:20:20;6.43;;;4.40;;
15381;SDS011;7789;51.364;12.358;2022-09-29T19:25:29;6.57;;;4.78;;
15381;SDS011;7789;51.364;12.358;2022-09-29T19:30:44;5.57;;;4.40;;
15381;SDS011;7789;51.364;12.358;2022-09-29T19:35:53;8.80;;;5.00;;
15381;SDS011;7789;51.364;12.358;2022-09-29T19:41:22;4.77;;;4.20;;
15381;SDS011;7789;51.364;12.358;2022-09-29T19:46:47;8.33;;;4.70;;
15381;SDS011;7789;51.364;12.358;2022-09-29T19:51:54;6.07;;;4.33;;
15381;SDS011;7789;51.364;12.358;2022-09-29T19:57:05;8.27;;;5.17;;
15381;SDS011;7789;51.364;12.358;2022-09-29T20:02:16;7.03;;;4.87;;
15381;SDS011;7789;51.364;12.358;2022-09-29T20:07:32;6.70;;;5.70;;
15381;SDS011;7789;51.364;12.358;2022-09-29T20:12:44;7.70;;;5.53;;
15381;SDS011;7789;51.364;12.358;2022-09-29T20:17:59;8.30;;;5.37;;
15381;SDS011;7789;51.364;12.358;2022-09-29T20:23:06;5.30;;;4.70;;
15381;SDS011;7789;51.364;12.358;2022-09-29T20:28:20;6.60;;;5.50;;
15381;SDS011;7789;51.364;12.358;2022-09-29T20:33:28;9.70;;;5.70;;
15381;SDS011;7789;51.364;12.358;2022-09-29T20:38:42;7.07;;;5.00;;
15381;SDS011;7789;51.364;12.358;2022-09-29T20:44:02;6.03;;;4.60;;
15381;SDS011;7789;51.364;12.358;2022-09-29T20:49:08;6.83;;;4.87;;
15381;SDS011;7789;51.364;12.358;2022-09-29T20:54:18;6.90;;;5.43;;
15381;SDS011;7789;51.364;12.358;2022-09-29T21:04:55;7.97;;;6.47;;
15381;SDS011;7789;51.364;12.358;2022-09-29T21:09:58;9.23;;;6.53;;
15381;SDS011;7789;51.364;12.358;2022-09-29T21:15:04;9.70;;;7.50;;
15381;SDS011;7789;51.364;12.358;2022-09-29T21:20:09;8.33;;;7.00;;
15381;SDS011;7789;51.364;12.358;2022-09-29T21:25:12;11.47;;;7.37;;
15381;SDS011;7789;51.364;12.358;2022-09-29T21:30:15;7.97;;;6.60;;
15381;SDS011;7789;51.364;12.358;2022-09-29T21:35:20;7.77;;;6.37;;
15381;SDS011;7789;51.364;12.358;2022-09-29T21:40:23;8.37;;;6.63;;
15381;SDS011;7789;51.364;12.358;2022-09-29T21:45:26;8.60;;;6.80;;
15381;SDS011;7789;51.364;12.358;2022-09-29T21:50:32;10.73;;;8.03;;
15381;SDS011;7789;51.364;12.358;2022-09-29T21:55:39;11.30;;;9.80;;
15381;SDS011;7789;51.364;12.358;2022-09-29T22:00:47;10.50;;;9.40;;
15381;SDS011;7789;51.364;12.358;2022-09-29T22:06:00;10.97;;;9.87;;
15381;SDS011;7789;51.364;12.358;2022-09-29T22:11:15;9.57;;;8.57;;
15381;SDS011;7789;51.364;12.358;2022-09-29T22:16:23;10.83;;;9.13;;
15381;SDS011;7789;51.364;12.358;2022-09-29T22:21:34;9.47;;;8.17;;
15381;SDS011;7789;51.364;12.358;2022-09-29T22:26:41;14.13;;;10.00;;
15381;SDS011;7789;51.364;12.358;2022-09-29T22:32:10;10.97;;;9.70;;
15381;SDS011;7789;51.364;12.358;2022-09-29T22:37:18;9.50;;;8.50;;
15381;SDS011;7789;51.364;12.358;2022-09-29T22:42:35;12.00;;;9.57;;
15381;SDS011;7789;51.364;12.358;2022-09-29T22:47:41;11.20;;;10.00;;
15381;SDS011;7789;51.364;12.358;2022-09-29T22:52:51;11.43;;;9.40;;
15381;SDS011;7789;51.364;12.358;2022-09-29T22:57:58;10.23;;;8.57;;
15381;SDS011;7789;51.364;12.358;2022-09-29T23:03:03;12.50;;;9.90;;
15381;SDS011;7789;51.364;12.358;2022-09-29T23:08:18;11.03;;;8.63;;
15381;SDS011;7789;51.364;12.358;2022-09-29T23:13:26;9.10;;;8.07;;
15381;SDS011;7789;51.364;12.358;2022-09-29T23:18:36;9.20;;;8.30;;
15381;SDS011;7789;51.364;12.358;2022-09-29T23:23:52;10.10;;;7.40;;
15381;SDS011;7789;51.364;12.358;2022-09-29T23:29:15;8.53;;;6.63;;
15381;SDS011;7789;51.364;12.358;2022-09-29T23:34:34;8.37;;;6.63;;
15381;SDS011;7789;51.364;12.358;2022-09-29T23:40:08;9.23;;;6.20;;
15381;SDS011;7789;51.364;12.358;2022-09-29T23:45:15;7.97;;;6.93;;
15381;SDS011;7789;51.364;12.358;2022-09-29T23:50:42;10.10;;;6.63;;
15381;SDS011;7789;51.364;12.358;2022-09-29T23:56:15;9.57;;;7.53;;
